sensor_id;sensor_type;location;lat;lon;timestamp;pressure;altitude;pressure_sealevel;temperature;humidity
47883;BME280;37739;50.350;7.578;2023-02-21T00:02:21;100246.38;;;7.17;82.22
47883;BME280;37739;50.350;7.578;2023-02-21T00:05:07;100241.59;;;7.08;82.46
47883;BME280;37739;50.350;7.578;2023-02-21T00:07:51;100243.19;;;7.06;82.32
47883;BME280;37739;50.350;7.578;2023-02-21T00:10:35;100249.34;;;7.10;82.44
47883;BME280;37739;50.350;7.578;2023-02-21T00:13:19;100250.41;;;7.13;82.12
47883;BME280;37739;50.350;7.578;2023-02-21T00:16:08;100241.59;;;7.08;82.11
47883;BME280;37739;50.350;7.578;2023-02-21T00:18:52;100246.47;;;7.03;81.97
47883;BME280;37739;50.350;7.578;2023-02-21T00:21:36;100247.94;;;7.00;81.62
47883;BME280;37739;50.350;7.578;2023-02-21T00:24:20;100246.78;;;6.95;82.03
47883;BME280;37739;50.350;7.578;2023-02-21T00:27:04;100237.03;;;6.87;81.91
47883;BME280;37739;50.350;7.578;2023-02-21T00:29:52;100245.38;;;6.85;82.31
47883;BME280;37739;50.350;7.578;2023-02-21T00:32:38;100238.53;;;6.84;81.70
47883;BME280;37739;50.350;7.578;2023-02-21T00:35:22;100237.56;;;6.82;81.80
47883;BME280;37739;50.350;7.578;2023-02-21T00:38:06;100230.25;;;6.88;81.66
47883;BME280;37739;50.350;7.578;2023-02-21T00:40:52;100229.47;;;6.89;81.14
47883;BME280;37739;50.350;7.578;2023-02-21T00:43:36;100223.56;;;6.90;81.10
47883;BME280;37739;50.350;7.578;2023-02-21T00:46:21;100223.75;;;6.93;80.87
47883;BME280;37739;50.350;7.578;2023-02-21T00:49:06;100220.69;;;6.99;80.40
47883;BME280;37739;50.350;7.578;2023-02-21T00:51:50;100229.13;;;6.98;80.44
47883;BME280;37739;50.350;7.578;2023-02-21T00:54:34;100230.97;;;7.00;79.95
47883;BME280;37739;50.350;7.578;2023-02-21T00:57:21;100227.53;;;7.00;79.75
47883;BME280;37739;50.350;7.578;2023-02-21T01:00:14;100231.47;;;6.95;79.67
47883;BME280;37739;50.350;7.578;2023-02-21T01:03:01;100225.59;;;6.96;80.16
47883;BME280;37739;50.350;7.578;2023-02-21T01:05:48;100215.81;;;6.88;79.90
47883;BME280;37739;50.350;7.578;2023-02-21T01:08:32;100221.91;;;6.91;80.02
47883;BME280;37739;50.350;7.578;2023-02-21T01:11:17;100223.56;;;6.90;79.91
47883;BME280;37739;50.350;7.578;2023-02-21T01:14:01;100228.31;;;6.84;79.86
47883;BME280;37739;50.350;7.578;2023-02-21T01:16:45;100229.47;;;6.74;80.22
47883;BME280;37739;50.350;7.578;2023-02-21T01:19:29;100228.66;;;6.75;80.09
47883;BME280;37739;50.350;7.578;2023-02-21T01:22:16;100231.19;;;6.75;79.97
47883;BME280;37739;50.350;7.578;2023-02-21T01:25:00;100236.03;;;6.71;79.81
47883;BME280;37739;50.350;7.578;2023-02-21T01:27:46;100240.69;;;6.63;80.52
47883;BME280;37739;50.350;7.578;2023-02-21T01:30:32;100249.34;;;6.52;80.72
47883;BME280;37739;50.350;7.578;2023-02-21T01:33:16;100248.19;;;6.46;80.97
47883;BME280;37739;50.350;7.578;2023-02-21T01:36:04;100244.00;;;6.47;80.69
47883;BME280;37739;50.350;7.578;2023-02-21T01:38:50;100240.06;;;6.39;81.34
47883;BME280;37739;50.350;7.578;2023-02-21T01:41:34;100239.09;;;6.37;81.11
47883;BME280;37739;50.350;7.578;2023-02-21T01:47:20;100244.13;;;6.35;81.26
47883;BME280;37739;50.350;7.578;2023-02-21T01:50:24;100238.22;;;6.36;81.12
47883;BME280;37739;50.350;7.578;2023-02-21T01:53:15;100233.22;;;6.38;80.70
47883;BME280;37739;50.350;7.578;2023-02-21T01:56:00;100227.34;;;6.39;80.17
47883;BME280;37739;50.350;7.578;2023-02-21T01:58:45;100234.63;;;6.33;80.90
47883;BME280;37739;50.350;7.578;2023-02-21T02:01:35;100231.78;;;6.28;81.30
47883;BME280;37739;50.350;7.578;2023-02-21T02:04:21;100225.72;;;6.26;81.03
47883;BME280;37739;50.350;7.578;2023-02-21T02:07:08;100213.09;;;6.27;81.40
47883;BME280;37739;50.350;7.578;2023-02-21T02:09:55;100214.63;;;6.25;81.30
47883;BME280;37739;50.350;7.578;2023-02-21T02:13:01;100218.34;;;6.31;80.97
47883;BME280;37739;50.350;7.578;2023-02-21T02:20:58;100214.69;;;6.40;81.03
47883;BME280;37739;50.350;7.578;2023-02-21T02:36:52;100208.41;;;6.63;80.98
47883;BME280;37739;50.350;7.578;2023-02-21T02:45:27;100211.31;;;6.55;81.50
47883;BME280;37739;50.350;7.578;2023-02-21T02:48:02;100209.53;;;6.54;81.40
47883;BME280;37739;50.350;7.578;2023-02-21T02:50:31;100205.25;;;6.53;81.99
47883;BME280;37739;50.350;7.578;2023-02-21T02:53:01;100200.06;;;6.51;82.35
47883;BME280;37739;50.350;7.578;2023-02-21T02:55:43;100200.81;;;6.50;82.06
47883;BME280;37739;50.350;7.578;2023-02-21T02:58:11;100202.50;;;6.49;82.10
47883;BME280;37739;50.350;7.578;2023-02-21T03:00:43;100201.63;;;6.49;82.21
47883;BME280;37739;50.350;7.578;2023-02-21T03:03:32;100202.50;;;6.49;81.81
47883;BME280;37739;50.350;7.578;2023-02-21T03:09:02;100203.28;;;6.48;82.07
47883;BME280;37739;50.350;7.578;2023-02-21T03:11:30;100192.91;;;6.45;82.41
47883;BME280;37739;50.350;7.578;2023-02-21T03:14:04;100190.16;;;6.42;82.49
47883;BME280;37739;50.350;7.578;2023-02-21T03:16:35;100190.97;;;6.41;82.67
47883;BME280;37739;50.350;7.578;2023-02-21T03:19:12;100188.44;;;6.41;82.27
47883;BME280;37739;50.350;7.578;2023-02-21T03:21:43;100187.53;;;6.41;82.06
47883;BME280;37739;50.350;7.578;2023-02-21T03:24:14;100185.88;;;6.41;82.00
47883;BME280;37739;50.350;7.578;2023-02-21T03:26:43;100184.97;;;6.41;81.74
47883;BME280;37739;50.350;7.578;2023-02-21T03:29:10;100186.94;;;6.45;81.50
47883;BME280;37739;50.350;7.578;2023-02-21T03:31:43;100189.41;;;6.43;81.41
47883;BME280;37739;50.350;7.578;2023-02-21T03:34:10;100188.34;;;6.40;81.50
47883;BME280;37739;50.350;7.578;2023-02-21T03:36:36;100185.69;;;6.38;81.47
47883;BME280;37739;50.350;7.578;2023-02-21T03:39:04;100190.31;;;6.31;81.62
47883;BME280;37739;50.350;7.578;2023-02-21T03:41:32;100190.31;;;6.31;81.92
47883;BME280;37739;50.350;7.578;2023-02-21T03:43:59;100185.31;;;6.32;81.58
47883;BME280;37739;50.350;7.578;2023-02-21T03:46:27;100189.44;;;6.30;81.80
47883;BME280;37739;50.350;7.578;2023-02-21T03:48:52;100198.84;;;6.31;81.81
47883;BME280;37739;50.350;7.578;2023-02-21T03:51:18;100203.88;;;6.29;81.79
47883;BME280;37739;50.350;7.578;2023-02-21T03:53:44;100206.59;;;6.33;81.60
47883;BME280;37739;50.350;7.578;2023-02-21T03:56:11;100198.25;;;6.35;81.65
47883;BME280;37739;50.350;7.578;2023-02-21T03:58:39;100205.09;;;6.36;81.46
47883;BME280;37739;50.350;7.578;2023-02-21T04:01:06;100199.75;;;6.32;81.34
47883;BME280;37739;50.350;7.578;2023-02-21T04:03:32;100202.78;;;6.26;80.93
47883;BME280;37739;50.350;7.578;2023-02-21T04:06:00;100206.91;;;6.24;81.52
47883;BME280;37739;50.350;7.578;2023-02-21T04:08:28;100200.16;;;6.24;81.31
47883;BME280;37739;50.350;7.578;2023-02-21T04:10:53;100202.59;;;6.23;81.34
47883;BME280;37739;50.350;7.578;2023-02-21T04:13:19;100202.50;;;6.21;81.38
47883;BME280;37739;50.350;7.578;2023-02-21T04:15:44;100208.31;;;6.19;81.21
47883;BME280;37739;50.350;7.578;2023-02-21T04:18:09;100192.91;;;6.17;81.43
47883;BME280;37739;50.350;7.578;2023-02-21T04:20:37;100196.16;;;6.15;81.69
47883;BME280;37739;50.350;7.578;2023-02-21T04:23:02;100190.28;;;6.16;81.77
47883;BME280;37739;50.350;7.578;2023-02-21T04:25:30;100192.16;;;6.18;81.60
47883;BME280;37739;50.350;7.578;2023-02-21T04:27:55;100192.03;;;6.17;81.27
47883;BME280;37739;50.350;7.578;2023-02-21T04:30:25;100193.31;;;6.10;81.21
47883;BME280;37739;50.350;7.578;2023-02-21T04:32:53;100187.09;;;6.05;81.85
47883;BME280;37739;50.350;7.578;2023-02-21T04:35:18;100178.63;;;6.06;81.63
47883;BME280;37739;50.350;7.578;2023-02-21T04:37:46;100187.00;;;6.03;81.96
47883;BME280;37739;50.350;7.578;2023-02-21T04:40:16;100183.66;;;6.04;81.84
47883;BME280;37739;50.350;7.578;2023-02-21T04:42:44;100184.44;;;6.03;81.49
47883;BME280;37739;50.350;7.578;2023-02-21T04:45:12;100183.56;;;6.03;81.71
47883;BME280;37739;50.350;7.578;2023-02-21T04:47:39;100180.91;;;6.01;81.75
47883;BME280;37739;50.350;7.578;2023-02-21T04:50:07;100177.31;;;5.98;81.71
47883;BME280;37739;50.350;7.578;2023-02-21T04:52:33;100174.44;;;5.93;81.68
47883;BME280;37739;50.350;7.578;2023-02-21T04:54:58;100165.03;;;5.92;82.33
47883;BME280;37739;50.350;7.578;2023-02-21T04:57:23;100162.31;;;5.89;82.20
47883;BME280;37739;50.350;7.578;2023-02-21T04:59:55;100171.13;;;5.81;82.93
47883;BME280;37739;50.350;7.578;2023-02-21T05:02:20;100167.63;;;5.79;82.92
47883;BME280;37739;50.350;7.578;2023-02-21T05:04:48;100171.03;;;5.79;82.95
47883;BME280;37739;50.350;7.578;2023-02-21T05:07:16;100174.47;;;5.80;83.23
47883;BME280;37739;50.350;7.578;2023-02-21T05:09:41;100169.38;;;5.80;83.28
47883;BME280;37739;50.350;7.578;2023-02-21T05:12:06;100172.59;;;5.77;83.14
47883;BME280;37739;50.350;7.578;2023-02-21T05:14:39;100167.25;;;5.73;83.40
47883;BME280;37739;50.350;7.578;2023-02-21T05:17:04;100175.38;;;5.67;83.51
47883;BME280;37739;50.350;7.578;2023-02-21T05:19:33;100162.91;;;5.71;83.29
47883;BME280;37739;50.350;7.578;2023-02-21T05:22:01;100174.59;;;5.68;83.31
47883;BME280;37739;50.350;7.578;2023-02-21T05:24:29;100173.81;;;5.69;83.33
47883;BME280;37739;50.350;7.578;2023-02-21T05:26:56;100183.50;;;5.48;84.15
47883;BME280;37739;50.350;7.578;2023-02-21T05:29:22;100179.28;;;5.48;84.66
47883;BME280;37739;50.350;7.578;2023-02-21T05:31:49;100173.66;;;5.53;84.12
47883;BME280;37739;50.350;7.578;2023-02-21T05:34:14;100176.47;;;5.57;84.24
47883;BME280;37739;50.350;7.578;2023-02-21T05:36:40;100174.78;;;5.58;84.54
47883;BME280;37739;50.350;7.578;2023-02-21T05:39:06;100171.56;;;5.60;84.14
47883;BME280;37739;50.350;7.578;2023-02-21T05:41:34;100179.22;;;5.60;84.12
47883;BME280;37739;50.350;7.578;2023-02-21T05:44:00;100179.22;;;5.60;84.21
47883;BME280;37739;50.350;7.578;2023-02-21T05:48:51;100178.31;;;5.60;84.31
47883;BME280;37739;50.350;7.578;2023-02-21T05:51:18;100174.28;;;5.63;84.33
47883;BME280;37739;50.350;7.578;2023-02-21T05:53:44;100173.44;;;5.63;84.25
47883;BME280;37739;50.350;7.578;2023-02-21T05:56:10;100183.41;;;5.60;84.17
47883;BME280;37739;50.350;7.578;2023-02-21T05:58:35;100182.44;;;5.58;84.18
47883;BME280;37739;50.350;7.578;2023-02-21T06:01:04;100179.59;;;5.53;84.06
47883;BME280;37739;50.350;7.578;2023-02-21T06:03:30;100180.47;;;5.54;84.72
47883;BME280;37739;50.350;7.578;2023-02-21T06:05:55;100183.91;;;5.54;84.37
47883;BME280;37739;50.350;7.578;2023-02-21T06:08:25;100182.53;;;5.32;85.04
47883;BME280;37739;50.350;7.578;2023-02-21T06:10:50;100185.94;;;5.33;85.38
47883;BME280;37739;50.350;7.578;2023-02-21T06:13:18;100180.78;;;5.31;84.81
47883;BME280;37739;50.350;7.578;2023-02-21T06:15:43;100189.69;;;5.38;84.81
47883;BME280;37739;50.350;7.578;2023-02-21T06:18:14;100183.03;;;5.40;84.63
47883;BME280;37739;50.350;7.578;2023-02-21T06:20:40;100188.22;;;5.42;84.47
47883;BME280;37739;50.350;7.578;2023-02-21T06:23:07;100186.66;;;5.44;84.67
47883;BME280;37739;50.350;7.578;2023-02-21T06:25:35;100187.25;;;5.40;84.45
47883;BME280;37739;50.350;7.578;2023-02-21T06:28:03;100188.22;;;5.28;84.60
47883;BME280;37739;50.350;7.578;2023-02-21T06:30:28;100183.94;;;5.27;84.69
47883;BME280;37739;50.350;7.578;2023-02-21T06:32:54;100194.19;;;5.29;85.01
47883;BME280;37739;50.350;7.578;2023-02-21T06:35:21;100187.34;;;5.28;84.85
47883;BME280;37739;50.350;7.578;2023-02-21T06:37:47;100180.47;;;5.27;84.50
47883;BME280;37739;50.350;7.578;2023-02-21T06:40:12;100189.03;;;5.27;84.93
47883;BME280;37739;50.350;7.578;2023-02-21T06:42:40;100185.66;;;5.28;84.93
47883;BME280;37739;50.350;7.578;2023-02-21T06:45:05;100193.78;;;5.36;85.25
47883;BME280;37739;50.350;7.578;2023-02-21T06:47:35;100193.03;;;5.37;85.16
47883;BME280;37739;50.350;7.578;2023-02-21T06:50:00;100198.19;;;5.39;85.47
47883;BME280;37739;50.350;7.578;2023-02-21T06:52:26;100187.34;;;5.41;85.33
47883;BME280;37739;50.350;7.578;2023-02-21T06:54:53;100187.25;;;5.40;85.06
47883;BME280;37739;50.350;7.578;2023-02-21T06:57:21;100188.00;;;5.39;84.96
47883;BME280;37739;50.350;7.578;2023-02-21T06:59:46;100184.41;;;5.35;84.92
47883;BME280;37739;50.350;7.578;2023-02-21T07:02:20;100185.47;;;5.39;85.15
47883;BME280;37739;50.350;7.578;2023-02-21T07:04:47;100184.50;;;5.37;85.48
47883;BME280;37739;50.350;7.578;2023-02-21T07:07:13;100182.84;;;5.37;85.55
47883;BME280;37739;50.350;7.578;2023-02-21T07:09:38;100182.06;;;5.38;85.33
47883;BME280;37739;50.350;7.578;2023-02-21T07:12:06;100169.53;;;5.41;85.56
47883;BME280;37739;50.350;7.578;2023-02-21T07:14:33;100167.09;;;5.43;85.63
47883;BME280;37739;50.350;7.578;2023-02-21T07:17:03;100179.28;;;5.48;85.35
47883;BME280;37739;50.350;7.578;2023-02-21T07:19:29;100174.41;;;5.51;84.96
47883;BME280;37739;50.350;7.578;2023-02-21T07:21:54;100168.56;;;5.53;85.60
47883;BME280;37739;50.350;7.578;2023-02-21T07:24:19;100177.94;;;5.54;85.46
47883;BME280;37739;50.350;7.578;2023-02-21T07:26:47;100176.25;;;5.54;85.98
47883;BME280;37739;50.350;7.578;2023-02-21T07:29:13;100175.69;;;5.58;85.65
47883;BME280;37739;50.350;7.578;2023-02-21T07:31:38;100179.28;;;5.62;85.76
47883;BME280;37739;50.350;7.578;2023-02-21T07:34:06;100171.84;;;5.65;85.56
47883;BME280;37739;50.350;7.578;2023-02-21T07:36:31;100178.88;;;5.69;85.18
47883;BME280;37739;50.350;7.578;2023-02-21T07:39:01;100179.09;;;5.72;85.63
47883;BME280;37739;50.350;7.578;2023-02-21T07:41:26;100173.41;;;5.76;85.44
47883;BME280;37739;50.350;7.578;2023-02-21T07:43:52;100183.38;;;5.73;85.45
47883;BME280;37739;50.350;7.578;2023-02-21T07:46:17;100185.25;;;5.76;85.65
47883;BME280;37739;50.350;7.578;2023-02-21T07:48:43;100192.19;;;5.78;85.83
47883;BME280;37739;50.350;7.578;2023-02-21T07:51:10;100191.59;;;5.82;85.88
47883;BME280;37739;50.350;7.578;2023-02-21T07:53:36;100198.53;;;5.85;85.95
47883;BME280;37739;50.350;7.578;2023-02-21T07:56:04;100197.56;;;5.83;86.17
47883;BME280;37739;50.350;7.578;2023-02-21T07:58:32;100197.50;;;5.81;86.41
47883;BME280;37739;50.350;7.578;2023-02-21T08:01:05;100190.22;;;5.87;85.94
47883;BME280;37739;50.350;7.578;2023-02-21T08:03:31;100191.59;;;5.96;85.88
47883;BME280;37739;50.350;7.578;2023-02-21T08:05:59;100188.81;;;6.06;86.12
47883;BME280;37739;50.350;7.578;2023-02-21T08:08:27;100186.75;;;6.14;85.32
47883;BME280;37739;50.350;7.578;2023-02-21T08:10:54;100187.16;;;6.20;85.02
47883;BME280;37739;50.350;7.578;2023-02-21T08:13:20;100189.00;;;6.22;85.00
47883;BME280;37739;50.350;7.578;2023-02-21T08:15:45;100183.44;;;6.15;85.79
47883;BME280;37739;50.350;7.578;2023-02-21T08:18:19;100187.72;;;6.16;85.87
47883;BME280;37739;50.350;7.578;2023-02-21T08:20:51;100181.91;;;6.32;85.31
47883;BME280;37739;50.350;7.578;2023-02-21T08:23:17;100177.34;;;6.41;84.73
47883;BME280;37739;50.350;7.578;2023-02-21T08:25:46;100180.44;;;6.50;84.69
47883;BME280;37739;50.350;7.578;2023-02-21T08:28:14;100175.09;;;6.60;84.26
47883;BME280;37739;50.350;7.578;2023-02-21T08:30:39;100175.38;;;6.65;84.10
47883;BME280;37739;50.350;7.578;2023-02-21T08:33:05;100177.22;;;6.53;84.66
47883;BME280;37739;50.350;7.578;2023-02-21T08:35:30;100176.66;;;6.43;85.65
47883;BME280;37739;50.350;7.578;2023-02-21T08:37:56;100174.25;;;6.32;85.88
47883;BME280;37739;50.350;7.578;2023-02-21T08:40:26;100171.09;;;6.36;86.51
47883;BME280;37739;50.350;7.578;2023-02-21T08:42:57;100166.25;;;6.40;86.75
47883;BME280;37739;50.350;7.578;2023-02-21T08:45:24;100168.41;;;6.47;86.32
47883;BME280;37739;50.350;7.578;2023-02-21T08:47:53;100168.22;;;6.59;86.05
47883;BME280;37739;50.350;7.578;2023-02-21T08:50:22;100167.91;;;6.83;85.08
47883;BME280;37739;50.350;7.578;2023-02-21T08:52:49;100161.94;;;6.97;84.66
47883;BME280;37739;50.350;7.578;2023-02-21T08:55:14;100165.06;;;7.08;83.48
47883;BME280;37739;50.350;7.578;2023-02-21T08:57:44;100158.56;;;7.13;83.31
47883;BME280;37739;50.350;7.578;2023-02-21T09:00:13;100158.91;;;7.19;82.72
47883;BME280;37739;50.350;7.578;2023-02-21T09:02:42;100157.69;;;7.27;83.00
47883;BME280;37739;50.350;7.578;2023-02-21T09:05:16;100157.84;;;7.31;82.69
47883;BME280;37739;50.350;7.578;2023-02-21T09:07:47;100154.13;;;7.25;83.14
47883;BME280;37739;50.350;7.578;2023-02-21T09:10:15;100156.69;;;7.25;83.62
47883;BME280;37739;50.350;7.578;2023-02-21T09:12:40;100155.19;;;7.29;83.68
47883;BME280;37739;50.350;7.578;2023-02-21T09:15:08;100161.78;;;7.25;83.49
47883;BME280;37739;50.350;7.578;2023-02-21T09:17:34;100158.69;;;7.46;83.44
47883;BME280;37739;50.350;7.578;2023-02-21T09:20:06;100147.63;;;7.62;83.46
47883;BME280;37739;50.350;7.578;2023-02-21T09:22:35;100148.31;;;7.74;82.58
47883;BME280;37739;50.350;7.578;2023-02-21T09:25:01;100140.50;;;7.88;82.53
47883;BME280;37739;50.350;7.578;2023-02-21T09:27:31;100144.19;;;8.09;81.78
47883;BME280;37739;50.350;7.578;2023-02-21T09:30:05;100136.88;;;8.33;80.85
47883;BME280;37739;50.350;7.578;2023-02-21T09:32:30;100141.31;;;8.52;80.00
47883;BME280;37739;50.350;7.578;2023-02-21T09:34:56;100144.72;;;8.69;79.84
47883;BME280;37739;50.350;7.578;2023-02-21T09:37:21;100139.25;;;8.79;78.97
47883;BME280;37739;50.350;7.578;2023-02-21T09:39:46;100142.91;;;8.84;78.69
47883;BME280;37739;50.350;7.578;2023-02-21T09:42:16;100146.66;;;8.57;77.64
47883;BME280;37739;50.350;7.578;2023-02-21T09:44:43;100144.34;;;8.29;79.57
47883;BME280;37739;50.350;7.578;2023-02-21T09:47:26;100144.28;;;8.43;79.38
47883;BME280;37739;50.350;7.578;2023-02-21T09:49:59;100142.34;;;8.56;79.32
47883;BME280;37739;50.350;7.578;2023-02-21T09:52:36;100140.84;;;8.77;80.27
47883;BME280;37739;50.350;7.578;2023-02-21T09:55:12;100136.56;;;8.94;79.30
47883;BME280;37739;50.350;7.578;2023-02-21T09:57:43;100138.91;;;9.08;79.96
47883;BME280;37739;50.350;7.578;2023-02-21T10:00:20;100138.78;;;9.22;78.61
47883;BME280;37739;50.350;7.578;2023-02-21T10:06:00;100134.34;;;9.56;76.74
47883;BME280;37739;50.350;7.578;2023-02-21T10:13:55;100126.09;;;9.81;75.22
47883;BME280;37739;50.350;7.578;2023-02-21T10:16:54;100126.19;;;10.02;75.59
47883;BME280;37739;50.350;7.578;2023-02-21T10:19:25;100131.59;;;10.08;75.03
47883;BME280;37739;50.350;7.578;2023-02-21T10:21:56;100131.13;;;10.17;75.52
47883;BME280;37739;50.350;7.578;2023-02-21T10:24:26;100124.38;;;10.19;74.18
47883;BME280;37739;50.350;7.578;2023-02-21T10:27:02;100130.69;;;10.45;74.00
47883;BME280;37739;50.350;7.578;2023-02-21T10:29:59;100136.56;;;10.64;72.48
47883;BME280;37739;50.350;7.578;2023-02-21T10:32:24;100129.03;;;10.88;73.58
47883;BME280;37739;50.350;7.578;2023-02-21T10:34:51;100134.72;;;10.80;70.73
47883;BME280;37739;50.350;7.578;2023-02-21T10:40:16;100128.19;;;11.10;72.38
47883;BME280;37739;50.350;7.578;2023-02-21T10:42:51;100129.97;;;11.33;71.04
47883;BME280;37739;50.350;7.578;2023-02-21T10:45:25;100129.31;;;11.16;71.06
47883;BME280;37739;50.350;7.578;2023-02-21T10:48:06;100128.28;;;11.34;70.14
47883;BME280;37739;50.350;7.578;2023-02-21T10:50:51;100117.31;;;11.38;70.02
47883;BME280;37739;50.350;7.578;2023-02-21T10:53:29;100119.59;;;11.30;68.79
47883;BME280;37739;50.350;7.578;2023-02-21T10:58:50;100117.91;;;11.53;70.27
47883;BME280;37739;50.350;7.578;2023-02-21T11:01:20;100112.06;;;11.80;70.08
47883;BME280;37739;50.350;7.578;2023-02-21T11:03:49;100106.78;;;12.00;68.70
47883;BME280;37739;50.350;7.578;2023-02-21T11:06:25;100104.75;;;11.91;67.69
47883;BME280;37739;50.350;7.578;2023-02-21T11:08:51;100099.59;;;11.91;68.88
47883;BME280;37739;50.350;7.578;2023-02-21T11:11:31;100101.22;;;12.11;68.04
47883;BME280;37739;50.350;7.578;2023-02-21T11:14:30;100099.03;;;12.48;67.29
47883;BME280;37739;50.350;7.578;2023-02-21T11:19:55;100098.56;;;12.85;65.03
47883;BME280;37739;50.350;7.578;2023-02-21T11:25:04;100086.50;;;13.11;65.94
47883;BME280;37739;50.350;7.578;2023-02-21T11:27:35;100074.22;;;13.03;64.28
47883;BME280;37739;50.350;7.578;2023-02-21T11:30:08;100070.19;;;13.11;66.19
47883;BME280;37739;50.350;7.578;2023-02-21T11:32:39;100070.66;;;13.53;64.47
47883;BME280;37739;50.350;7.578;2023-02-21T11:37:48;100056.59;;;13.74;62.39
47883;BME280;37739;50.350;7.578;2023-02-21T11:45:42;100032.53;;;13.43;63.90
47883;BME280;37739;50.350;7.578;2023-02-21T11:48:13;100035.53;;;13.57;63.32
47883;BME280;37739;50.350;7.578;2023-02-21T11:50:45;100024.63;;;13.67;61.76
47883;BME280;37739;50.350;7.578;2023-02-21T11:53:44;100023.22;;;13.48;63.17
47883;BME280;37739;50.350;7.578;2023-02-21T11:56:29;100025.88;;;13.82;63.99
47883;BME280;37739;50.350;7.578;2023-02-21T11:59:32;100016.47;;;14.16;61.46
47883;BME280;37739;50.350;7.578;2023-02-21T12:07:20;99997.88;;;14.29;61.17
47883;BME280;37739;50.350;7.578;2023-02-21T12:12:40;100005.72;;;14.67;60.61
47883;BME280;37739;50.350;7.578;2023-02-21T12:15:23;99992.88;;;14.68;59.35
47883;BME280;37739;50.350;7.578;2023-02-21T12:20:58;99985.56;;;15.29;60.04
47883;BME280;37739;50.350;7.578;2023-02-21T12:23:41;99979.19;;;15.53;59.71
47883;BME280;37739;50.350;7.578;2023-02-21T12:26:42;99971.59;;;15.64;57.84
47883;BME280;37739;50.350;7.578;2023-02-21T12:29:19;99967.59;;;15.77;59.49
47883;BME280;37739;50.350;7.578;2023-02-21T12:35:01;99973.94;;;15.94;58.70
47883;BME280;37739;50.350;7.578;2023-02-21T12:37:58;99958.66;;;16.08;57.16
47883;BME280;37739;50.350;7.578;2023-02-21T12:43:45;99955.56;;;16.31;55.47
47883;BME280;37739;50.350;7.578;2023-02-21T12:49:22;99950.72;;;15.99;56.33
47883;BME280;37739;50.350;7.578;2023-02-21T12:51:58;99939.69;;;16.09;57.08
47883;BME280;37739;50.350;7.578;2023-02-21T12:54:39;99944.13;;;16.18;56.17
47883;BME280;37739;50.350;7.578;2023-02-21T12:57:13;99935.03;;;16.40;55.75
47883;BME280;37739;50.350;7.578;2023-02-21T13:04:57;99922.69;;;16.25;54.71
47883;BME280;37739;50.350;7.578;2023-02-21T13:12:44;99908.97;;;16.31;54.33
47883;BME280;37739;50.350;7.578;2023-02-21T13:17:39;99903.72;;;16.24;55.36
47883;BME280;37739;50.350;7.578;2023-02-21T13:20:08;99891.50;;;16.17;57.07
47883;BME280;37739;50.350;7.578;2023-02-21T13:28:55;99895.72;;;16.09;55.20
47883;BME280;37739;50.350;7.578;2023-02-21T13:31:26;99889.81;;;16.19;55.72
47883;BME280;37739;50.350;7.578;2023-02-21T13:34:04;99882.22;;;16.32;56.88
47883;BME280;37739;50.350;7.578;2023-02-21T13:39:26;99874.66;;;16.45;54.46
47883;BME280;37739;50.350;7.578;2023-02-21T13:42:04;99871.66;;;16.18;55.74
47883;BME280;37739;50.350;7.578;2023-02-21T13:44:44;99870.41;;;16.51;56.08
47883;BME280;37739;50.350;7.578;2023-02-21T13:47:19;99857.69;;;16.66;54.47
47883;BME280;37739;50.350;7.578;2023-02-21T13:57:44;99855.19;;;15.62;56.65
47883;BME280;37739;50.350;7.578;2023-02-21T14:06:14;99843.53;;;15.36;57.51
47883;BME280;37739;50.350;7.578;2023-02-21T14:08:43;99848.59;;;15.29;58.27
47883;BME280;37739;50.350;7.578;2023-02-21T14:11:20;99838.41;;;14.93;58.71
47883;BME280;37739;50.350;7.578;2023-02-21T14:13:54;99837.47;;;14.89;59.73
47883;BME280;37739;50.350;7.578;2023-02-21T14:16:27;99831.75;;;15.04;58.63
47883;BME280;37739;50.350;7.578;2023-02-21T14:18:57;99834.59;;;15.17;58.81
47883;BME280;37739;50.350;7.578;2023-02-21T14:21:24;99831.22;;;15.21;58.67
47883;BME280;37739;50.350;7.578;2023-02-21T14:23:57;99834.44;;;15.10;56.04
47883;BME280;37739;50.350;7.578;2023-02-21T14:29:01;99826.88;;;14.76;58.67
47883;BME280;37739;50.350;7.578;2023-02-21T14:32:14;99831.88;;;14.68;59.01
47883;BME280;37739;50.350;7.578;2023-02-21T14:39:54;99818.53;;;14.48;60.21
47883;BME280;37739;50.350;7.578;2023-02-21T15:07:18;99794.97;;;14.73;59.02
47883;BME280;37739;50.350;7.578;2023-02-21T15:10:11;99798.47;;;14.76;58.93
47883;BME280;37739;50.350;7.578;2023-02-21T15:12:45;99798.00;;;14.54;59.76
47883;BME280;37739;50.350;7.578;2023-02-21T15:15:17;99789.47;;;14.57;60.37
47883;BME280;37739;50.350;7.578;2023-02-21T15:17:54;99802.19;;;14.49;59.99
47883;BME280;37739;50.350;7.578;2023-02-21T15:20:20;99794.44;;;14.49;60.15
47883;BME280;37739;50.350;7.578;2023-02-21T15:23:01;99795.34;;;14.49;59.30
47883;BME280;37739;50.350;7.578;2023-02-21T15:25:28;99792.69;;;14.46;60.64
47883;BME280;37739;50.350;7.578;2023-02-21T15:27:56;99788.28;;;14.42;60.86
47883;BME280;37739;50.350;7.578;2023-02-21T15:30:38;99795.91;;;14.36;61.16
47883;BME280;37739;50.350;7.578;2023-02-21T15:33:19;99800.94;;;14.31;60.85
47883;BME280;37739;50.350;7.578;2023-02-21T15:38:25;99796.66;;;14.30;61.26
47883;BME280;37739;50.350;7.578;2023-02-21T15:40:58;99796.56;;;14.27;61.81
47883;BME280;37739;50.350;7.578;2023-02-21T15:43:32;99793.03;;;14.22;62.33
47883;BME280;37739;50.350;7.578;2023-02-21T15:46:02;99791.84;;;14.08;62.51
47883;BME280;37739;50.350;7.578;2023-02-21T15:48:29;99795.16;;;14.02;63.02
47883;BME280;37739;50.350;7.578;2023-02-21T15:51:01;99789.16;;;14.03;62.95
47883;BME280;37739;50.350;7.578;2023-02-21T15:53:27;99787.53;;;14.07;62.95
47883;BME280;37739;50.350;7.578;2023-02-21T15:55:53;99786.47;;;13.99;63.41
47883;BME280;37739;50.350;7.578;2023-02-21T15:58:38;99791.50;;;13.92;63.33
47883;BME280;37739;50.350;7.578;2023-02-21T16:01:09;99785.34;;;13.87;63.45
47883;BME280;37739;50.350;7.578;2023-02-21T16:03:40;99789.53;;;13.82;63.84